createdAt,value
2022-10-25T00:00:42.319Z,19.00
2022-10-25T00:03:13.401Z,25.57
2022-10-25T00:05:42.415Z,21.87
2022-10-25T00:08:10.975Z,23.77
2022-10-25T00:10:39.392Z,25.47
2022-10-25T00:13:07.738Z,21.73
2022-10-25T00:15:35.784Z,24.83
2022-10-25T00:18:03.781Z,25.67
2022-10-25T00:20:33.130Z,22.53
2022-10-25T00:23:01.592Z,24.50
2022-10-25T00:25:29.531Z,19.60
2022-10-25T00:27:57.563Z,27.03
2022-10-25T00:30:25.541Z,24.67
2022-10-25T00:32:54.611Z,23.67
2022-10-25T00:35:22.998Z,29.70
2022-10-25T00:37:52.749Z,35.33
2022-10-25T00:40:20.863Z,37.27
2022-10-25T00:42:49.054Z,32.70
2022-10-25T00:45:23.678Z,29.97
2022-10-25T00:47:56.563Z,28.37
2022-10-25T00:50:46.449Z,31.97
2022-10-25T00:53:20.261Z,27.53
2022-10-25T00:55:53.388Z,35.20
2022-10-25T00:58:25.473Z,29.43
2022-10-25T01:00:53.649Z,27.73
2022-10-25T01:03:25.367Z,27.23
2022-10-25T01:05:53.925Z,26.27
2022-10-25T01:08:23.990Z,32.37
2022-10-25T01:10:52.148Z,27.83
2022-10-25T01:13:20.263Z,17.40
2022-10-25T01:16:02.062Z,19.23
2022-10-25T01:18:43.480Z,18.37
2022-10-25T01:21:37.391Z,18.53
2022-10-25T01:24:40.841Z,22.87
2022-10-25T01:27:23.666Z,12.53
2022-10-25T01:30:08.147Z,17.47
2022-10-25T01:32:59.323Z,18.60
2022-10-25T01:35:30.918Z,21.47
2022-10-25T01:38:12.098Z,21.17
2022-10-25T01:40:49.374Z,18.67
2022-10-25T01:43:30.941Z,14.90
2022-10-25T01:46:06.852Z,19.23
2022-10-25T01:48:41.230Z,20.97
2022-10-25T01:51:12.379Z,18.50
2022-10-25T01:53:47.926Z,18.67
2022-10-25T01:56:24.140Z,21.00
2022-10-25T01:59:17.778Z,21.33
2022-10-25T02:02:00.657Z,24.77
2022-10-25T02:04:41.100Z,21.77
2022-10-25T02:07:12.535Z,14.43
2022-10-25T02:09:52.039Z,20.23
2022-10-25T02:12:26.611Z,19.57
2022-10-25T02:15:05.576Z,22.40
2022-10-25T02:17:37.750Z,18.43
2022-10-25T02:20:09.659Z,17.77
2022-10-25T02:22:40.149Z,15.80
2022-10-25T02:25:10.866Z,12.97
2022-10-25T02:27:41.131Z,16.70
2022-10-25T02:30:10.827Z,21.60
2022-10-25T02:32:38.835Z,14.33
2022-10-25T02:35:14.979Z,23.07
2022-10-25T02:37:43.011Z,20.63
2022-10-25T02:40:11.929Z,18.30
2022-10-25T02:42:39.902Z,18.97
2022-10-25T02:45:09.168Z,16.87
2022-10-25T02:47:37.361Z,21.53
2022-10-25T02:50:05.844Z,27.57
2022-10-25T02:52:35.108Z,24.10
2022-10-25T02:55:03.084Z,18.27
2022-10-25T02:57:34.521Z,27.17
2022-10-25T03:00:02.602Z,31.57
2022-10-25T03:02:30.664Z,24.40
2022-10-25T03:04:58.559Z,20.40
2022-10-25T03:07:26.483Z,27.40
2022-10-25T03:09:55.850Z,27.27
2022-10-25T03:12:23.777Z,33.87
2022-10-25T03:14:51.674Z,25.20
2022-10-25T03:17:19.775Z,27.07
2022-10-25T03:19:47.796Z,29.60
2022-10-25T03:22:15.749Z,33.87
2022-10-25T03:24:43.697Z,28.87
2022-10-25T03:27:12.954Z,22.37
2022-10-25T03:29:41.381Z,31.63
2022-10-25T03:32:09.448Z,25.63
2022-10-25T03:34:37.427Z,26.10
2022-10-25T03:37:05.301Z,23.83
2022-10-25T03:39:33.320Z,25.37
2022-10-25T03:42:01.158Z,28.33
2022-10-25T03:44:30.417Z,34.73
2022-10-25T03:46:58.343Z,24.70
2022-10-25T03:49:26.768Z,24.63
2022-10-25T03:51:57.899Z,27.70
2022-10-25T03:54:29.403Z,25.20
2022-10-25T03:56:57.459Z,31.23
2022-10-25T03:59:25.411Z,24.33
2022-10-25T04:01:55.939Z,27.37
2022-10-25T04:04:24.019Z,26.20
2022-10-25T04:06:51.927Z,32.50
2022-10-25T04:09:20.030Z,33.13
2022-10-25T04:11:48.076Z,31.00
2022-10-25T04:14:15.992Z,32.13
2022-10-25T04:16:44.000Z,29.80
2022-10-25T04:19:13.298Z,29.13
2022-10-25T04:21:41.332Z,25.63
2022-10-25T04:24:09.412Z,28.43
2022-10-25T04:26:37.784Z,24.80
2022-10-25T04:29:07.327Z,29.93
2022-10-25T04:31:35.767Z,29.63
2022-10-25T04:34:03.687Z,23.33
2022-10-25T04:36:33.008Z,35.90
2022-10-25T04:39:01.300Z,24.47
2022-10-25T04:41:29.146Z,27.80
2022-10-25T04:43:57.112Z,28.70
2022-10-25T04:46:25.064Z,32.97
2022-10-25T04:48:52.913Z,30.13
2022-10-25T04:51:20.777Z,31.07
2022-10-25T04:53:50.029Z,29.30
2022-10-25T04:56:17.904Z,33.13
2022-10-25T04:58:45.821Z,34.27
2022-10-25T05:01:17.036Z,22.50
2022-10-25T05:03:45.023Z,30.10
2022-10-25T05:06:15.283Z,32.30
2022-10-25T05:08:45.483Z,34.37
2022-10-25T05:11:16.060Z,30.37
2022-10-25T05:13:45.126Z,28.17
2022-10-25T05:16:17.314Z,30.83
2022-10-25T05:18:46.825Z,33.93
2022-10-25T05:21:16.093Z,31.30
2022-10-25T05:23:44.143Z,25.60
2022-10-25T05:26:15.221Z,26.83
2022-10-25T05:28:44.921Z,28.90
2022-10-25T05:31:15.386Z,31.53
2022-10-25T05:33:45.369Z,23.20
2022-10-25T05:36:14.542Z,29.27
2022-10-25T05:38:42.729Z,30.97
2022-10-25T05:41:12.359Z,39.13
2022-10-25T05:43:42.498Z,32.70
2022-10-25T05:46:12.893Z,25.30
2022-10-25T05:48:45.793Z,32.80
2022-10-25T05:51:33.039Z,30.13
2022-10-25T05:54:03.895Z,28.43
2022-10-25T05:56:33.315Z,27.93
2022-10-25T05:59:07.724Z,23.43
2022-10-25T06:01:36.711Z,28.37
2022-10-25T06:04:04.935Z,29.47
2022-10-25T06:06:32.910Z,29.23
2022-10-25T06:09:02.563Z,30.40
2022-10-25T06:11:31.256Z,28.30
2022-10-25T06:13:59.394Z,29.87
2022-10-25T06:16:28.906Z,28.27
2022-10-25T06:18:56.878Z,26.73
2022-10-25T06:21:27.042Z,27.23
2022-10-25T06:23:56.576Z,26.10
2022-10-25T06:26:26.992Z,30.80
2022-10-25T06:28:57.195Z,33.97
2022-10-25T06:31:25.961Z,27.37
2022-10-25T06:33:55.266Z,30.97
2022-10-25T06:36:24.659Z,31.40
2022-10-25T06:38:53.030Z,28.67
2022-10-25T06:41:22.490Z,24.53
2022-10-25T06:43:50.944Z,26.57
2022-10-25T06:46:22.838Z,22.80
2022-10-25T06:48:51.801Z,29.53
2022-10-25T06:51:21.810Z,21.53
2022-10-25T06:53:54.391Z,33.60
2022-10-25T06:56:22.303Z,41.10
2022-10-25T06:58:50.472Z,50.43
2022-10-25T07:01:21.009Z,51.07
2022-10-25T07:03:50.728Z,43.37
2022-10-25T07:06:23.882Z,45.13
2022-10-25T07:08:54.917Z,42.93
2022-10-25T07:11:23.708Z,40.47
2022-10-25T07:13:51.837Z,34.93
2022-10-25T07:16:21.769Z,50.97
2022-10-25T07:18:50.286Z,37.60
2022-10-25T07:21:20.338Z,47.67
2022-10-25T07:23:50.921Z,35.93
2022-10-25T07:26:21.097Z,35.33
2022-10-25T07:28:51.555Z,47.27
2022-10-25T07:31:22.027Z,24.10
2022-10-25T07:33:50.241Z,37.53
2022-10-25T07:36:18.338Z,30.60
2022-10-25T07:38:49.258Z,36.07
2022-10-25T07:41:17.259Z,34.17
2022-10-25T07:43:45.991Z,33.20
2022-10-25T07:46:14.185Z,34.07
2022-10-25T07:48:42.346Z,32.23
2022-10-25T07:51:13.559Z,28.10
2022-10-25T07:53:41.860Z,27.27
2022-10-25T07:56:16.216Z,28.73
2022-10-25T07:58:47.251Z,30.27
2022-10-25T08:01:20.709Z,27.07
2022-10-25T08:03:48.766Z,32.17
2022-10-25T08:06:16.657Z,28.40
2022-10-25T08:08:44.619Z,31.47
2022-10-25T08:11:13.935Z,36.53
2022-10-25T08:13:42.094Z,29.47
2022-10-25T08:16:10.277Z,30.03
2022-10-25T08:18:38.160Z,28.13
2022-10-25T08:21:06.351Z,37.03
2022-10-25T08:23:34.641Z,32.93
2022-10-25T08:26:03.598Z,33.17
2022-10-25T08:28:32.861Z,41.07
2022-10-25T08:31:01.987Z,21.53
2022-10-25T08:33:30.590Z,22.50
2022-10-25T08:36:02.058Z,27.03
2022-10-25T08:38:30.294Z,19.90
2022-10-25T08:41:06.889Z,27.40
2022-10-25T08:44:10.183Z,50.70
2022-10-25T08:46:42.112Z,23.00
2022-10-25T08:49:20.866Z,21.70
2022-10-25T08:51:51.222Z,21.50
2022-10-25T08:54:27.623Z,20.87
2022-10-25T08:57:15.496Z,21.90
2022-10-25T08:59:50.213Z,17.17
2022-10-25T09:02:25.748Z,19.37
2022-10-25T09:04:54.654Z,18.30
2022-10-25T09:07:46.780Z,16.73
2022-10-25T09:10:26.997Z,24.70
2022-10-25T09:13:06.951Z,22.43
2022-10-25T09:15:52.315Z,20.17
2022-10-25T09:18:23.578Z,14.20
2022-10-25T09:20:53.275Z,14.33
2022-10-25T09:23:28.097Z,24.30
2022-10-25T09:26:04.315Z,18.00
2022-10-25T09:28:50.735Z,21.93
2022-10-25T09:31:24.028Z,20.90
2022-10-25T09:34:03.083Z,20.27
2022-10-25T09:36:38.230Z,21.60
2022-10-25T09:39:16.617Z,21.67
2022-10-25T09:41:47.831Z,22.20
2022-10-25T09:44:24.910Z,22.77
2022-10-25T09:46:58.860Z,26.00
2022-10-25T09:49:34.976Z,27.57
2022-10-25T09:52:11.443Z,25.17
2022-10-25T09:54:45.689Z,22.67
2022-10-25T09:57:13.669Z,26.03
2022-10-25T09:59:41.726Z,24.27
2022-10-25T10:02:19.015Z,27.73
2022-10-25T10:04:47.074Z,27.50
2022-10-25T10:07:21.589Z,22.93
2022-10-25T10:09:51.673Z,24.50
2022-10-25T10:12:24.915Z,22.80
2022-10-25T10:15:01.257Z,18.90
2022-10-25T10:17:31.867Z,28.97
2022-10-25T10:20:18.721Z,25.67
2022-10-25T10:22:51.793Z,19.07
2022-10-25T10:25:22.783Z,25.93
2022-10-25T10:27:53.397Z,23.83
2022-10-25T10:30:29.163Z,23.80
2022-10-25T10:33:01.333Z,24.30
2022-10-25T10:35:32.847Z,29.00
2022-10-25T10:38:23.428Z,25.60
2022-10-25T10:40:52.571Z,22.13
2022-10-25T10:43:29.768Z,30.97
2022-10-25T10:46:03.873Z,22.87
2022-10-25T10:48:42.090Z,29.67
2022-10-25T10:51:25.156Z,23.83
2022-10-25T10:54:00.094Z,24.07
2022-10-25T10:56:30.832Z,22.10
2022-10-25T10:58:59.227Z,24.57
2022-10-25T11:01:33.677Z,17.30
2022-10-25T11:04:03.455Z,21.83
2022-10-25T11:06:33.501Z,20.13
2022-10-25T11:09:18.006Z,18.77
2022-10-25T11:11:47.199Z,19.20
2022-10-25T11:14:16.958Z,20.83
2022-10-25T11:16:58.933Z,25.50
2022-10-25T11:20:03.807Z,23.42
2022-10-25T11:22:49.382Z,20.07
2022-10-25T11:25:30.592Z,16.23
2022-10-25T11:28:11.625Z,23.75
2022-10-25T11:30:47.302Z,18.45
2022-10-25T11:33:46.470Z,17.25
2022-10-25T11:36:28.484Z,21.83
2022-10-25T11:39:22.172Z,26.70
2022-10-25T11:41:52.773Z,21.48
2022-10-25T11:45:02.298Z,17.20
2022-10-25T11:47:43.444Z,19.10
2022-10-25T11:50:25.308Z,21.20
2022-10-25T11:53:23.182Z,22.35
2022-10-25T11:55:56.144Z,19.52
2022-10-25T11:58:42.362Z,17.48
2022-10-25T12:01:22.688Z,16.40
2022-10-25T12:04:09.062Z,17.15
2022-10-25T12:06:43.263Z,15.70
2022-10-25T12:09:24.634Z,17.92
2022-10-25T12:11:59.629Z,13.90
2022-10-25T12:14:33.380Z,15.85
2022-10-25T12:17:04.757Z,14.75
2022-10-25T12:19:42.907Z,17.15
2022-10-25T12:22:18.662Z,24.42
2022-10-25T12:24:52.684Z,18.25
2022-10-25T12:27:23.610Z,16.23
2022-10-25T12:29:56.933Z,18.83
2022-10-25T12:32:33.390Z,17.52
2022-10-25T12:35:03.922Z,11.45
2022-10-25T12:37:38.600Z,27.00
2022-10-25T12:40:15.887Z,15.90
2022-10-25T12:42:47.809Z,16.98
2022-10-25T12:45:34.871Z,15.98
2022-10-25T12:48:16.625Z,34.92
2022-10-25T12:51:05.123Z,23.75
2022-10-25T12:54:05.506Z,18.08
2022-10-25T12:56:46.069Z,18.40
2022-10-25T12:59:35.096Z,21.25
2022-10-25T13:02:18.954Z,16.05
2022-10-25T13:05:12.734Z,13.77
2022-10-25T13:07:40.773Z,17.50
2022-10-25T13:10:18.186Z,14.20
2022-10-25T13:13:00.046Z,13.98
2022-10-25T13:15:39.979Z,15.23
2022-10-25T13:18:26.088Z,15.32
2022-10-25T13:20:54.832Z,14.05
2022-10-25T13:24:02.910Z,16.80
2022-10-25T13:26:34.177Z,16.30
2022-10-25T13:29:26.392Z,11.40
2022-10-25T13:32:10.369Z,13.70
2022-10-25T13:34:40.553Z,12.98
2022-10-25T13:37:42.293Z,13.15
2022-10-25T13:40:25.549Z,16.42
2022-10-25T13:43:02.952Z,17.73
2022-10-25T13:45:43.837Z,10.38
2022-10-25T13:48:27.135Z,12.65
2022-10-25T13:50:58.013Z,14.38
2022-10-25T13:53:31.310Z,15.65
2022-10-25T13:56:04.318Z,17.17
2022-10-25T13:58:50.513Z,10.73
2022-10-25T14:01:55.843Z,13.20
2022-10-25T14:04:40.954Z,16.05
2022-10-25T14:07:47.645Z,13.45
2022-10-25T14:10:24.378Z,12.43
2022-10-25T14:12:55.768Z,12.93
2022-10-25T14:15:36.617Z,17.85
2022-10-25T14:18:08.963Z,12.82
2022-10-25T14:20:40.077Z,18.23
2022-10-25T14:23:15.301Z,18.23
2022-10-25T14:25:51.144Z,15.98
2022-10-25T14:28:23.805Z,19.10
2022-10-25T14:30:54.520Z,21.65
2022-10-25T14:33:28.323Z,22.15
2022-10-25T14:36:08.028Z,22.55
2022-10-25T14:38:39.897Z,14.65
2022-10-25T14:41:13.806Z,23.60
2022-10-25T14:43:43.210Z,26.40
2022-10-25T14:46:16.232Z,26.73
2022-10-25T14:48:46.893Z,39.88
2022-10-25T14:51:22.165Z,26.67
2022-10-25T14:53:56.852Z,24.05
2022-10-25T14:56:29.499Z,49.75
2022-10-25T14:58:58.776Z,46.28
2022-10-25T15:01:27.398Z,31.95
2022-10-25T15:03:59.229Z,21.60
2022-10-25T15:06:32.370Z,36.38
2022-10-25T15:09:30.129Z,35.08
2022-10-25T15:12:15.642Z,24.88
2022-10-25T15:14:43.720Z,25.95
2022-10-25T15:17:18.911Z,20.95
2022-10-25T15:20:05.727Z,25.48
2022-10-25T15:22:43.543Z,32.92
2022-10-25T15:25:30.335Z,28.20
2022-10-25T15:28:09.295Z,33.65
2022-10-25T15:30:40.371Z,26.88
2022-10-25T15:33:12.176Z,26.92
2022-10-25T15:35:56.780Z,62.13
2022-10-25T15:38:41.900Z,24.75
2022-10-25T15:41:16.368Z,23.17
2022-10-25T15:43:44.306Z,31.20
2022-10-25T15:46:24.176Z,22.77
2022-10-25T15:48:52.077Z,32.33
2022-10-25T15:51:20.509Z,27.90
2022-10-25T15:53:49.846Z,22.27
2022-10-25T15:56:20.942Z,31.55
2022-10-25T15:58:49.295Z,28.20
2022-10-25T16:01:17.364Z,20.80
2022-10-25T16:03:45.460Z,29.57
2022-10-25T16:06:14.871Z,22.27
2022-10-25T16:08:43.051Z,23.97
2022-10-25T16:11:16.763Z,28.73
2022-10-25T16:13:47.061Z,18.80
2022-10-25T16:16:38.724Z,24.97
2022-10-25T16:19:11.109Z,23.23
2022-10-25T16:21:38.976Z,23.77
2022-10-25T16:24:07.153Z,24.17
2022-10-25T16:26:41.020Z,12.77
2022-10-25T16:29:15.427Z,31.47
2022-10-25T16:31:43.606Z,23.93
2022-10-25T16:34:11.886Z,22.03
2022-10-25T16:36:40.155Z,19.83
2022-10-25T16:39:08.918Z,21.80
2022-10-25T16:41:42.105Z,18.13
2022-10-25T16:44:12.199Z,21.47
2022-10-25T16:46:40.164Z,16.83
2022-10-25T16:49:09.516Z,22.53
2022-10-25T16:51:38.546Z,21.13
2022-10-25T16:54:07.055Z,18.30
2022-10-25T16:56:35.686Z,25.00
2022-10-25T16:59:04.983Z,18.17
2022-10-25T17:01:35.004Z,18.63
2022-10-25T17:04:04.003Z,18.63
2022-10-25T17:06:47.750Z,16.67
2022-10-25T17:09:16.680Z,20.37
2022-10-25T17:11:44.830Z,22.43
2022-10-25T17:14:14.380Z,24.43
2022-10-25T17:16:44.560Z,22.93
2022-10-25T17:19:13.168Z,29.17
2022-10-25T17:21:41.271Z,28.13
2022-10-25T17:24:09.846Z,15.60
2022-10-25T17:26:38.289Z,15.67
2022-10-25T17:29:06.819Z,24.23
2022-10-25T17:31:36.378Z,20.37
2022-10-25T17:34:05.395Z,24.17
2022-10-25T17:36:33.729Z,17.33
2022-10-25T17:39:02.411Z,23.00
2022-10-25T17:41:30.337Z,25.43
2022-10-25T17:43:58.417Z,20.00
2022-10-25T17:46:29.170Z,22.27
2022-10-25T17:49:03.451Z,21.80
2022-10-25T17:51:32.621Z,15.40
2022-10-25T17:54:02.217Z,20.83
2022-10-25T17:59:05.758Z,19.23
2022-10-25T18:01:36.319Z,22.73
2022-10-25T18:04:05.715Z,20.87
2022-10-25T18:06:33.828Z,17.70
2022-10-25T18:09:03.817Z,20.23
2022-10-25T18:11:32.432Z,24.57
2022-10-25T18:14:01.863Z,28.67
2022-10-25T18:16:31.271Z,20.27
2022-10-25T18:19:01.174Z,29.83
2022-10-25T18:21:31.981Z,18.57
2022-10-25T18:24:01.253Z,21.60
2022-10-25T18:26:29.955Z,14.80
2022-10-25T18:28:59.258Z,20.37
2022-10-25T18:31:29.228Z,21.93
2022-10-25T18:33:59.136Z,19.03
2022-10-25T18:36:27.818Z,16.80
2022-10-25T18:38:57.317Z,18.60
2022-10-25T18:41:27.195Z,19.40
2022-10-25T18:43:55.907Z,16.33
2022-10-25T18:46:24.800Z,20.10
2022-10-25T18:48:53.178Z,12.07
2022-10-25T18:51:22.787Z,15.90
2022-10-25T18:53:54.443Z,14.87
2022-10-25T18:56:24.247Z,19.43
2022-10-25T18:58:54.029Z,15.30
2022-10-25T19:01:24.616Z,21.90
2022-10-25T19:03:53.163Z,19.40
2022-10-25T19:06:21.229Z,20.50
2022-10-25T19:08:49.701Z,14.33
2022-10-25T19:11:18.050Z,12.07
2022-10-25T19:13:50.426Z,10.97
2022-10-25T19:16:19.525Z,8.43
2022-10-25T19:18:47.544Z,15.90
2022-10-25T19:21:18.447Z,19.03
2022-10-25T19:23:47.143Z,11.57
2022-10-25T19:26:19.973Z,11.10
2022-10-25T19:28:49.341Z,15.53
2022-10-25T19:31:19.077Z,14.53
2022-10-25T19:33:48.190Z,14.07
2022-10-25T19:36:16.779Z,16.40
2022-10-25T19:38:46.138Z,12.20
2022-10-25T19:41:16.670Z,15.20
2022-10-25T19:43:44.884Z,17.63
2022-10-25T19:46:14.466Z,13.97
2022-10-25T19:48:43.066Z,18.07
2022-10-25T19:51:12.999Z,17.23
2022-10-25T19:53:41.068Z,17.90
2022-10-25T19:56:10.869Z,11.77
2022-10-25T19:58:38.782Z,15.53
2022-10-25T20:01:08.676Z,12.27
2022-10-25T20:03:39.414Z,12.60
2022-10-25T20:06:09.555Z,15.27
2022-10-25T20:08:39.713Z,24.20
2022-10-25T20:11:08.853Z,14.17
2022-10-25T20:13:36.782Z,16.93
2022-10-25T20:16:06.059Z,15.43
2022-10-25T20:18:35.960Z,12.20
2022-10-25T20:21:07.501Z,8.80
2022-10-25T20:23:36.710Z,10.77
2022-10-25T20:26:12.635Z,19.00
2022-10-25T20:28:40.585Z,19.47
2022-10-25T20:31:08.605Z,18.73
2022-10-25T20:33:36.710Z,12.77
2022-10-25T20:36:08.831Z,14.77
2022-10-25T20:38:38.131Z,13.63
2022-10-25T20:41:07.774Z,15.77
2022-10-25T20:43:36.002Z,23.93
2022-10-25T20:46:04.507Z,12.83
2022-10-25T20:48:32.905Z,18.80
2022-10-25T20:51:04.117Z,11.73
2022-10-25T20:53:36.971Z,14.53
2022-10-25T20:56:05.282Z,16.53
2022-10-25T20:58:34.767Z,13.83
2022-10-25T21:01:03.407Z,17.33
2022-10-25T21:03:32.985Z,13.37
2022-10-25T21:06:03.504Z,10.97
2022-10-25T21:08:32.128Z,11.43
2022-10-25T21:11:02.666Z,13.27
2022-10-25T21:13:37.389Z,12.83
2022-10-25T21:16:09.341Z,13.60
2022-10-25T21:18:37.738Z,17.63
2022-10-25T21:21:07.858Z,18.73
2022-10-25T21:23:36.411Z,15.67
2022-10-25T21:26:07.759Z,18.57
2022-10-25T21:28:37.714Z,14.07
2022-10-25T21:31:07.276Z,13.30
2022-10-25T21:33:35.692Z,13.80
2022-10-25T21:36:04.871Z,13.50
2022-10-25T21:38:32.801Z,13.93
2022-10-25T21:41:11.231Z,14.67
2022-10-25T21:43:43.863Z,12.70
2022-10-25T21:46:12.360Z,11.93
2022-10-25T21:48:40.439Z,13.43
2022-10-25T21:51:08.744Z,8.57
2022-10-25T21:53:36.706Z,11.53
2022-10-25T21:56:06.506Z,11.90
2022-10-25T21:58:35.779Z,11.70
2022-10-25T22:01:03.929Z,13.00
2022-10-25T22:03:32.133Z,9.07
2022-10-25T22:06:00.121Z,12.03
2022-10-25T22:08:28.072Z,11.03
2022-10-25T22:10:57.543Z,10.73
2022-10-25T22:13:25.590Z,12.13
2022-10-25T22:16:03.160Z,10.33
2022-10-25T22:18:31.616Z,12.30
2022-10-25T22:21:01.251Z,9.33
2022-10-25T22:23:31.188Z,9.97
2022-10-25T22:26:01.514Z,10.00
2022-10-25T22:28:29.640Z,9.50
2022-10-25T22:31:03.382Z,10.80
2022-10-25T22:33:31.756Z,12.07
2022-10-25T22:38:32.810Z,9.73
2022-10-25T22:41:01.997Z,13.30
2022-10-25T22:43:30.111Z,9.33
2022-10-25T22:45:58.101Z,7.47
2022-10-25T22:48:31.436Z,15.40
2022-10-25T22:50:59.745Z,12.20
2022-10-25T22:53:27.872Z,9.53
2022-10-25T22:55:57.518Z,6.03
2022-10-25T22:58:26.821Z,8.97
2022-10-25T23:03:39.048Z,13.10
2022-10-25T23:06:09.457Z,12.80
2022-10-25T23:08:37.419Z,10.77
2022-10-25T23:11:07.178Z,10.67
2022-10-25T23:13:37.141Z,14.63
2022-10-25T23:16:05.463Z,8.43
2022-10-25T23:18:33.976Z,14.30
2022-10-25T23:21:04.313Z,7.73
2022-10-25T23:23:36.096Z,11.73
2022-10-25T23:26:04.045Z,11.70
2022-10-25T23:28:32.695Z,10.90
2022-10-25T23:31:05.468Z,7.33
2022-10-25T23:33:33.527Z,7.60
2022-10-25T23:36:08.941Z,7.10
2022-10-25T23:38:37.526Z,9.60
2022-10-25T23:41:06.007Z,12.90
2022-10-25T23:43:34.196Z,11.30
2022-10-25T23:46:02.543Z,7.87
2022-10-25T23:48:30.961Z,10.00
2022-10-25T23:53:31.326Z,9.97
2022-10-25T23:55:59.661Z,9.33
2022-10-25T23:58:27.643Z,9.23
